sensor_id;sensor_type;location;lat;lon;timestamp;P1;durP1;ratioP1;P2;durP2;ratioP2
31482;SDS011;18103;52.246;8.052;2023-03-14T00:01:37;2.27;;;1.03;;
31482;SDS011;18103;52.246;8.052;2023-03-14T00:04:03;6.17;;;1.57;;
31482;SDS011;18103;52.246;8.052;2023-03-14T00:06:29;4.93;;;1.87;;
31482;SDS011;18103;52.246;8.052;2023-03-14T00:08:59;11.17;;;1.87;;
31482;SDS011;18103;52.246;8.052;2023-03-14T00:11:28;6.80;;;1.60;;
31482;SDS011;18103;52.246;8.052;2023-03-14T00:13:54;4.70;;;1.23;;
31482;SDS011;18103;52.246;8.052;2023-03-14T00:16:22;5.60;;;1.87;;
31482;SDS011;18103;52.246;8.052;2023-03-14T00:18:50;5.07;;;1.50;;
31482;SDS011;18103;52.246;8.052;2023-03-14T00:21:16;6.53;;;1.90;;
31482;SDS011;18103;52.246;8.052;2023-03-14T00:23:41;6.10;;;1.63;;
31482;SDS011;18103;52.246;8.052;2023-03-14T00:26:13;4.33;;;1.40;;
31482;SDS011;18103;52.246;8.052;2023-03-14T00:28:40;8.27;;;2.00;;
31482;SDS011;18103;52.246;8.052;2023-03-14T00:31:07;3.20;;;1.37;;
31482;SDS011;18103;52.246;8.052;2023-03-14T00:33:36;3.10;;;1.10;;
31482;SDS011;18103;52.246;8.052;2023-03-14T00:36:03;16.07;;;2.10;;
31482;SDS011;18103;52.246;8.052;2023-03-14T00:38:35;5.90;;;1.57;;
31482;SDS011;18103;52.246;8.052;2023-03-14T00:41:08;2.57;;;1.47;;
31482;SDS011;18103;52.246;8.052;2023-03-14T00:43:35;3.57;;;1.67;;
31482;SDS011;18103;52.246;8.052;2023-03-14T00:46:01;7.63;;;1.80;;
31482;SDS011;18103;52.246;8.052;2023-03-14T00:48:27;5.33;;;1.50;;
31482;SDS011;18103;52.246;8.052;2023-03-14T00:50:53;4.60;;;0.90;;
31482;SDS011;18103;52.246;8.052;2023-03-14T00:53:21;6.40;;;1.83;;
31482;SDS011;18103;52.246;8.052;2023-03-14T00:55:46;2.90;;;1.37;;
31482;SDS011;18103;52.246;8.052;2023-03-14T00:58:13;6.27;;;1.40;;
31482;SDS011;18103;52.246;8.052;2023-03-14T01:00:40;4.27;;;1.50;;
31482;SDS011;18103;52.246;8.052;2023-03-14T01:03:06;2.10;;;1.07;;
31482;SDS011;18103;52.246;8.052;2023-03-14T01:05:32;2.97;;;1.80;;
31482;SDS011;18103;52.246;8.052;2023-03-14T01:08:00;2.60;;;1.07;;
31482;SDS011;18103;52.246;8.052;2023-03-14T01:10:30;4.00;;;1.23;;
31482;SDS011;18103;52.246;8.052;2023-03-14T01:12:58;8.40;;;1.37;;
31482;SDS011;18103;52.246;8.052;2023-03-14T01:15:26;4.23;;;1.23;;
31482;SDS011;18103;52.246;8.052;2023-03-14T01:17:54;3.03;;;1.30;;
31482;SDS011;18103;52.246;8.052;2023-03-14T01:20:21;5.13;;;1.20;;
31482;SDS011;18103;52.246;8.052;2023-03-14T01:22:49;4.90;;;1.03;;
31482;SDS011;18103;52.246;8.052;2023-03-14T01:25:15;4.93;;;1.27;;
31482;SDS011;18103;52.246;8.052;2023-03-14T01:27:46;3.50;;;1.23;;
31482;SDS011;18103;52.246;8.052;2023-03-14T01:30:13;5.77;;;1.40;;
31482;SDS011;18103;52.246;8.052;2023-03-14T01:32:41;5.43;;;1.47;;
31482;SDS011;18103;52.246;8.052;2023-03-14T01:35:07;7.30;;;1.17;;
31482;SDS011;18103;52.246;8.052;2023-03-14T01:37:33;6.10;;;1.33;;
31482;SDS011;18103;52.246;8.052;2023-03-14T01:40:01;3.67;;;0.70;;
31482;SDS011;18103;52.246;8.052;2023-03-14T01:42:26;9.63;;;1.33;;
31482;SDS011;18103;52.246;8.052;2023-03-14T01:47:17;2.90;;;1.30;;
31482;SDS011;18103;52.246;8.052;2023-03-14T01:49:56;3.27;;;1.00;;
31482;SDS011;18103;52.246;8.052;2023-03-14T01:52:32;6.40;;;1.57;;
31482;SDS011;18103;52.246;8.052;2023-03-14T01:55:03;5.83;;;1.43;;
31482;SDS011;18103;52.246;8.052;2023-03-14T02:00:13;6.13;;;1.47;;
31482;SDS011;18103;52.246;8.052;2023-03-14T02:02:44;5.13;;;1.33;;
31482;SDS011;18103;52.246;8.052;2023-03-14T02:05:12;4.30;;;1.53;;
31482;SDS011;18103;52.246;8.052;2023-03-14T02:10:18;5.80;;;1.53;;
31482;SDS011;18103;52.246;8.052;2023-03-14T02:12:47;3.53;;;1.20;;
31482;SDS011;18103;52.246;8.052;2023-03-14T02:15:14;9.57;;;1.67;;
31482;SDS011;18103;52.246;8.052;2023-03-14T02:17:42;4.33;;;1.40;;
31482;SDS011;18103;52.246;8.052;2023-03-14T02:22:38;7.00;;;1.37;;
31482;SDS011;18103;52.246;8.052;2023-03-14T02:27:46;3.33;;;1.67;;
31482;SDS011;18103;52.246;8.052;2023-03-14T02:30:20;2.80;;;1.30;;
31482;SDS011;18103;52.246;8.052;2023-03-14T02:32:49;1.90;;;1.17;;
31482;SDS011;18103;52.246;8.052;2023-03-14T02:35:24;5.93;;;1.40;;
31482;SDS011;18103;52.246;8.052;2023-03-14T02:37:54;7.20;;;1.40;;
31482;SDS011;18103;52.246;8.052;2023-03-14T02:40:24;1.67;;;1.20;;
31482;SDS011;18103;52.246;8.052;2023-03-14T02:42:49;10.40;;;2.10;;
31482;SDS011;18103;52.246;8.052;2023-03-14T02:47:44;5.13;;;1.40;;
31482;SDS011;18103;52.246;8.052;2023-03-14T02:50:15;4.50;;;1.47;;
31482;SDS011;18103;52.246;8.052;2023-03-14T02:52:44;10.37;;;1.87;;
31482;SDS011;18103;52.246;8.052;2023-03-14T02:55:09;7.77;;;1.27;;
31482;SDS011;18103;52.246;8.052;2023-03-14T02:57:35;8.53;;;1.10;;
31482;SDS011;18103;52.246;8.052;2023-03-14T03:00:01;6.83;;;1.00;;
31482;SDS011;18103;52.246;8.052;2023-03-14T03:02:29;4.80;;;1.47;;
31482;SDS011;18103;52.246;8.052;2023-03-14T03:04:55;6.60;;;1.20;;
31482;SDS011;18103;52.246;8.052;2023-03-14T03:07:20;5.10;;;1.63;;
31482;SDS011;18103;52.246;8.052;2023-03-14T03:09:46;5.83;;;1.07;;
31482;SDS011;18103;52.246;8.052;2023-03-14T03:12:14;5.83;;;1.00;;
31482;SDS011;18103;52.246;8.052;2023-03-14T03:14:39;3.83;;;1.37;;
31482;SDS011;18103;52.246;8.052;2023-03-14T03:17:07;3.57;;;1.50;;
31482;SDS011;18103;52.246;8.052;2023-03-14T03:19:33;3.90;;;1.47;;
31482;SDS011;18103;52.246;8.052;2023-03-14T03:21:59;8.50;;;1.47;;
31482;SDS011;18103;52.246;8.052;2023-03-14T03:24:29;4.70;;;1.30;;
31482;SDS011;18103;52.246;8.052;2023-03-14T03:26:54;6.53;;;1.10;;
31482;SDS011;18103;52.246;8.052;2023-03-14T03:29:22;3.77;;;0.97;;
31482;SDS011;18103;52.246;8.052;2023-03-14T03:31:50;3.03;;;0.77;;
31482;SDS011;18103;52.246;8.052;2023-03-14T03:34:18;3.70;;;1.63;;
31482;SDS011;18103;52.246;8.052;2023-03-14T03:36:46;8.07;;;1.23;;
31482;SDS011;18103;52.246;8.052;2023-03-14T03:39:14;3.60;;;1.00;;
31482;SDS011;18103;52.246;8.052;2023-03-14T03:41:41;4.00;;;0.93;;
31482;SDS011;18103;52.246;8.052;2023-03-14T03:44:07;5.33;;;1.30;;
31482;SDS011;18103;52.246;8.052;2023-03-14T03:46:37;8.00;;;1.17;;
31482;SDS011;18103;52.246;8.052;2023-03-14T03:49:02;7.77;;;1.27;;
31482;SDS011;18103;52.246;8.052;2023-03-14T03:51:28;5.60;;;1.43;;
31482;SDS011;18103;52.246;8.052;2023-03-14T03:53:53;7.10;;;1.90;;
31482;SDS011;18103;52.246;8.052;2023-03-14T03:56:18;3.27;;;1.00;;
31482;SDS011;18103;52.246;8.052;2023-03-14T03:58:44;3.13;;;0.97;;
31482;SDS011;18103;52.246;8.052;2023-03-14T04:01:10;2.90;;;0.50;;
31482;SDS011;18103;52.246;8.052;2023-03-14T04:03:38;2.23;;;1.00;;
31482;SDS011;18103;52.246;8.052;2023-03-14T04:06:05;1.23;;;0.60;;
31482;SDS011;18103;52.246;8.052;2023-03-14T04:08:38;5.20;;;1.50;;
31482;SDS011;18103;52.246;8.052;2023-03-14T04:11:06;2.23;;;0.53;;
31482;SDS011;18103;52.246;8.052;2023-03-14T04:13:32;6.23;;;0.97;;
31482;SDS011;18103;52.246;8.052;2023-03-14T04:15:57;5.60;;;0.97;;
31482;SDS011;18103;52.246;8.052;2023-03-14T04:18:23;1.97;;;0.90;;
31482;SDS011;18103;52.246;8.052;2023-03-14T04:20:52;6.83;;;1.50;;
31482;SDS011;18103;52.246;8.052;2023-03-14T04:23:22;5.57;;;1.80;;
31482;SDS011;18103;52.246;8.052;2023-03-14T04:25:51;5.47;;;1.57;;
31482;SDS011;18103;52.246;8.052;2023-03-14T04:28:19;6.37;;;1.23;;
31482;SDS011;18103;52.246;8.052;2023-03-14T04:30:44;6.57;;;1.73;;
31482;SDS011;18103;52.246;8.052;2023-03-14T04:33:10;8.73;;;1.67;;
31482;SDS011;18103;52.246;8.052;2023-03-14T04:35:37;7.53;;;2.10;;
31482;SDS011;18103;52.246;8.052;2023-03-14T04:38:03;1.97;;;1.60;;
31482;SDS011;18103;52.246;8.052;2023-03-14T04:40:33;6.13;;;2.63;;
31482;SDS011;18103;52.246;8.052;2023-03-14T04:43:00;4.63;;;2.10;;
31482;SDS011;18103;52.246;8.052;2023-03-14T04:45:28;6.67;;;2.60;;
31482;SDS011;18103;52.246;8.052;2023-03-14T04:47:56;6.90;;;2.43;;
31482;SDS011;18103;52.246;8.052;2023-03-14T04:50:21;8.63;;;3.27;;
31482;SDS011;18103;52.246;8.052;2023-03-14T04:52:47;4.90;;;2.57;;
31482;SDS011;18103;52.246;8.052;2023-03-14T04:55:13;6.07;;;2.77;;
31482;SDS011;18103;52.246;8.052;2023-03-14T04:57:38;11.73;;;2.67;;
31482;SDS011;18103;52.246;8.052;2023-03-14T05:00:10;9.17;;;2.50;;
31482;SDS011;18103;52.246;8.052;2023-03-14T05:02:36;9.00;;;2.70;;
31482;SDS011;18103;52.246;8.052;2023-03-14T05:05:02;6.23;;;2.37;;
31482;SDS011;18103;52.246;8.052;2023-03-14T05:07:31;8.77;;;2.60;;
31482;SDS011;18103;52.246;8.052;2023-03-14T05:10:01;10.53;;;3.33;;
31482;SDS011;18103;52.246;8.052;2023-03-14T05:12:26;9.50;;;2.60;;
31482;SDS011;18103;52.246;8.052;2023-03-14T05:14:54;8.80;;;2.30;;
31482;SDS011;18103;52.246;8.052;2023-03-14T05:17:20;6.53;;;3.00;;
31482;SDS011;18103;52.246;8.052;2023-03-14T05:19:48;7.33;;;2.57;;
31482;SDS011;18103;52.246;8.052;2023-03-14T05:22:13;6.53;;;3.03;;
31482;SDS011;18103;52.246;8.052;2023-03-14T05:24:41;7.20;;;1.83;;
31482;SDS011;18103;52.246;8.052;2023-03-14T05:27:06;8.30;;;2.70;;
31482;SDS011;18103;52.246;8.052;2023-03-14T05:29:32;13.67;;;2.30;;
31482;SDS011;18103;52.246;8.052;2023-03-14T05:31:57;5.77;;;1.83;;
31482;SDS011;18103;52.246;8.052;2023-03-14T05:34:27;6.67;;;2.40;;
31482;SDS011;18103;52.246;8.052;2023-03-14T05:36:52;5.37;;;2.43;;
31482;SDS011;18103;52.246;8.052;2023-03-14T05:39:18;8.63;;;2.57;;
31482;SDS011;18103;52.246;8.052;2023-03-14T05:41:43;5.57;;;1.97;;
31482;SDS011;18103;52.246;8.052;2023-03-14T05:44:09;5.07;;;2.17;;
31482;SDS011;18103;52.246;8.052;2023-03-14T05:46:34;5.50;;;1.97;;
31482;SDS011;18103;52.246;8.052;2023-03-14T05:48:59;3.87;;;1.73;;
31482;SDS011;18103;52.246;8.052;2023-03-14T05:51:27;9.03;;;1.60;;
31482;SDS011;18103;52.246;8.052;2023-03-14T05:53:53;7.00;;;2.17;;
31482;SDS011;18103;52.246;8.052;2023-03-14T05:56:18;6.10;;;1.90;;
31482;SDS011;18103;52.246;8.052;2023-03-14T05:58:43;10.67;;;2.67;;
31482;SDS011;18103;52.246;8.052;2023-03-14T06:01:11;9.20;;;2.00;;
31482;SDS011;18103;52.246;8.052;2023-03-14T06:03:39;6.57;;;2.73;;
31482;SDS011;18103;52.246;8.052;2023-03-14T06:06:05;4.10;;;1.93;;
31482;SDS011;18103;52.246;8.052;2023-03-14T06:08:30;2.83;;;1.33;;
31482;SDS011;18103;52.246;8.052;2023-03-14T06:10:59;4.57;;;1.53;;
31482;SDS011;18103;52.246;8.052;2023-03-14T06:13:27;8.87;;;1.80;;
31482;SDS011;18103;52.246;8.052;2023-03-14T06:15:53;4.07;;;1.10;;
31482;SDS011;18103;52.246;8.052;2023-03-14T06:18:18;3.40;;;1.30;;
31482;SDS011;18103;52.246;8.052;2023-03-14T06:20:44;6.20;;;1.40;;
31482;SDS011;18103;52.246;8.052;2023-03-14T06:23:09;3.53;;;1.20;;
31482;SDS011;18103;52.246;8.052;2023-03-14T06:25:35;9.97;;;1.50;;
31482;SDS011;18103;52.246;8.052;2023-03-14T06:28:01;3.17;;;1.20;;
31482;SDS011;18103;52.246;8.052;2023-03-14T06:30:26;3.43;;;1.00;;
31482;SDS011;18103;52.246;8.052;2023-03-14T06:32:54;4.43;;;1.40;;
31482;SDS011;18103;52.246;8.052;2023-03-14T06:35:22;2.93;;;0.97;;
31482;SDS011;18103;52.246;8.052;2023-03-14T06:37:48;4.80;;;1.23;;
31482;SDS011;18103;52.246;8.052;2023-03-14T06:40:13;2.40;;;1.10;;
31482;SDS011;18103;52.246;8.052;2023-03-14T06:42:44;7.17;;;1.83;;
31482;SDS011;18103;52.246;8.052;2023-03-14T06:45:10;4.23;;;0.70;;
31482;SDS011;18103;52.246;8.052;2023-03-14T06:47:35;2.03;;;0.90;;
31482;SDS011;18103;52.246;8.052;2023-03-14T06:50:04;1.03;;;0.53;;
31482;SDS011;18103;52.246;8.052;2023-03-14T06:52:31;4.07;;;1.00;;
31482;SDS011;18103;52.246;8.052;2023-03-14T06:54:56;1.10;;;0.50;;
31482;SDS011;18103;52.246;8.052;2023-03-14T06:57:22;3.33;;;0.97;;
31482;SDS011;18103;52.246;8.052;2023-03-14T06:59:49;1.87;;;0.80;;
31482;SDS011;18103;52.246;8.052;2023-03-14T07:02:15;5.03;;;1.00;;
31482;SDS011;18103;52.246;8.052;2023-03-14T07:04:40;1.27;;;0.40;;
31482;SDS011;18103;52.246;8.052;2023-03-14T07:07:06;2.23;;;0.70;;
31482;SDS011;18103;52.246;8.052;2023-03-14T07:09:31;1.90;;;0.63;;
31482;SDS011;18103;52.246;8.052;2023-03-14T07:11:57;0.90;;;0.30;;
31482;SDS011;18103;52.246;8.052;2023-03-14T07:14:25;3.53;;;0.63;;
31482;SDS011;18103;52.246;8.052;2023-03-14T07:16:56;0.30;;;0.30;;
31482;SDS011;18103;52.246;8.052;2023-03-14T07:19:21;2.67;;;1.10;;
31482;SDS011;18103;52.246;8.052;2023-03-14T07:21:47;1.00;;;0.70;;
31482;SDS011;18103;52.246;8.052;2023-03-14T07:24:14;2.77;;;0.63;;
31482;SDS011;18103;52.246;8.052;2023-03-14T07:26:40;0.50;;;0.50;;
31482;SDS011;18103;52.246;8.052;2023-03-14T07:29:05;3.50;;;0.80;;
31482;SDS011;18103;52.246;8.052;2023-03-14T07:31:31;0.83;;;0.67;;
31482;SDS011;18103;52.246;8.052;2023-03-14T07:33:58;0.70;;;0.70;;
31482;SDS011;18103;52.246;8.052;2023-03-14T07:36:24;3.70;;;1.20;;
31482;SDS011;18103;52.246;8.052;2023-03-14T07:38:52;1.53;;;1.03;;
31482;SDS011;18103;52.246;8.052;2023-03-14T07:41:17;1.93;;;1.10;;
31482;SDS011;18103;52.246;8.052;2023-03-14T07:43:48;1.77;;;1.23;;
31482;SDS011;18103;52.246;8.052;2023-03-14T07:46:13;3.63;;;1.30;;
31482;SDS011;18103;52.246;8.052;2023-03-14T07:48:40;2.90;;;1.63;;
31482;SDS011;18103;52.246;8.052;2023-03-14T07:51:05;3.20;;;1.63;;
31482;SDS011;18103;52.246;8.052;2023-03-14T07:53:33;2.13;;;1.47;;
31482;SDS011;18103;52.246;8.052;2023-03-14T07:55:59;2.13;;;1.57;;
31482;SDS011;18103;52.246;8.052;2023-03-14T07:58:27;2.40;;;1.70;;
31482;SDS011;18103;52.246;8.052;2023-03-14T08:00:54;1.83;;;1.50;;
31482;SDS011;18103;52.246;8.052;2023-03-14T08:03:20;7.33;;;1.43;;
31482;SDS011;18103;52.246;8.052;2023-03-14T08:05:49;1.73;;;1.57;;
31482;SDS011;18103;52.246;8.052;2023-03-14T08:08:15;2.27;;;1.47;;
31482;SDS011;18103;52.246;8.052;2023-03-14T08:10:41;2.93;;;1.50;;
31482;SDS011;18103;52.246;8.052;2023-03-14T08:13:09;2.20;;;1.40;;
31482;SDS011;18103;52.246;8.052;2023-03-14T08:15:35;2.57;;;1.40;;
31482;SDS011;18103;52.246;8.052;2023-03-14T08:18:01;2.13;;;1.20;;
31482;SDS011;18103;52.246;8.052;2023-03-14T08:20:29;1.90;;;1.70;;
31482;SDS011;18103;52.246;8.052;2023-03-14T08:22:58;1.73;;;1.40;;
31482;SDS011;18103;52.246;8.052;2023-03-14T08:25:25;1.40;;;1.30;;
31482;SDS011;18103;52.246;8.052;2023-03-14T08:27:53;1.50;;;1.40;;
31482;SDS011;18103;52.246;8.052;2023-03-14T08:30:19;1.63;;;1.53;;
31482;SDS011;18103;52.246;8.052;2023-03-14T08:32:46;3.20;;;1.70;;
31482;SDS011;18103;52.246;8.052;2023-03-14T08:35:12;2.67;;;1.90;;
31482;SDS011;18103;52.246;8.052;2023-03-14T08:37:38;2.27;;;2.00;;
31482;SDS011;18103;52.246;8.052;2023-03-14T08:40:04;3.03;;;1.97;;
31482;SDS011;18103;52.246;8.052;2023-03-14T08:42:34;2.23;;;1.97;;
31482;SDS011;18103;52.246;8.052;2023-03-14T08:45:07;2.67;;;2.40;;
31482;SDS011;18103;52.246;8.052;2023-03-14T08:47:33;3.10;;;2.20;;
31482;SDS011;18103;52.246;8.052;2023-03-14T08:49:59;4.20;;;2.27;;
31482;SDS011;18103;52.246;8.052;2023-03-14T08:52:24;7.10;;;2.30;;
31482;SDS011;18103;52.246;8.052;2023-03-14T08:54:55;3.10;;;2.13;;
31482;SDS011;18103;52.246;8.052;2023-03-14T08:57:21;3.63;;;2.70;;
31482;SDS011;18103;52.246;8.052;2023-03-14T08:59:47;4.10;;;2.90;;
31482;SDS011;18103;52.246;8.052;2023-03-14T09:02:12;6.47;;;2.60;;
31482;SDS011;18103;52.246;8.052;2023-03-14T09:04:40;2.83;;;2.47;;
31482;SDS011;18103;52.246;8.052;2023-03-14T09:07:05;2.53;;;2.33;;
31482;SDS011;18103;52.246;8.052;2023-03-14T09:09:31;2.73;;;2.30;;
31482;SDS011;18103;52.246;8.052;2023-03-14T09:11:59;3.23;;;2.50;;
31482;SDS011;18103;52.246;8.052;2023-03-14T09:14:25;3.00;;;2.50;;
31482;SDS011;18103;52.246;8.052;2023-03-14T09:16:50;4.73;;;2.60;;
31482;SDS011;18103;52.246;8.052;2023-03-14T09:19:20;3.43;;;2.70;;
31482;SDS011;18103;52.246;8.052;2023-03-14T09:21:46;2.57;;;2.23;;
31482;SDS011;18103;52.246;8.052;2023-03-14T09:24:11;4.80;;;3.00;;
31482;SDS011;18103;52.246;8.052;2023-03-14T09:26:39;3.67;;;3.10;;
31482;SDS011;18103;52.246;8.052;2023-03-14T09:29:05;4.07;;;3.10;;
31482;SDS011;18103;52.246;8.052;2023-03-14T09:31:32;3.30;;;2.63;;
31482;SDS011;18103;52.246;8.052;2023-03-14T09:33:58;4.00;;;2.70;;
31482;SDS011;18103;52.246;8.052;2023-03-14T09:36:23;2.57;;;1.47;;
31482;SDS011;18103;52.246;8.052;2023-03-14T09:38:49;0.50;;;0.50;;
31482;SDS011;18103;52.246;8.052;2023-03-14T09:43:46;0.40;;;0.40;;
31482;SDS011;18103;52.246;8.052;2023-03-14T09:46:16;0.23;;;0.23;;
31482;SDS011;18103;52.246;8.052;2023-03-14T09:48:45;0.77;;;0.20;;
31482;SDS011;18103;52.246;8.052;2023-03-14T09:51:14;0.20;;;0.20;;
31482;SDS011;18103;52.246;8.052;2023-03-14T09:53:44;0.10;;;0.10;;
31482;SDS011;18103;52.246;8.052;2023-03-14T09:56:21;0.20;;;0.20;;
31482;SDS011;18103;52.246;8.052;2023-03-14T09:58:48;0.40;;;0.40;;
31482;SDS011;18103;52.246;8.052;2023-03-14T10:01:20;0.20;;;0.20;;
31482;SDS011;18103;52.246;8.052;2023-03-14T10:03:49;0.20;;;0.20;;
31482;SDS011;18103;52.246;8.052;2023-03-14T10:06:17;0.13;;;0.13;;
31482;SDS011;18103;52.246;8.052;2023-03-14T10:08:43;0.93;;;0.50;;
31482;SDS011;18103;52.246;8.052;2023-03-14T10:11:12;0.20;;;0.20;;
31482;SDS011;18103;52.246;8.052;2023-03-14T10:16:43;0.60;;;0.60;;
31482;SDS011;18103;52.246;8.052;2023-03-14T10:19:11;0.60;;;0.60;;
31482;SDS011;18103;52.246;8.052;2023-03-14T10:21:50;0.10;;;0.10;;
31482;SDS011;18103;52.246;8.052;2023-03-14T10:24:21;0.10;;;0.10;;
31482;SDS011;18103;52.246;8.052;2023-03-14T10:26:57;0.57;;;0.57;;
31482;SDS011;18103;52.246;8.052;2023-03-14T10:29:31;0.67;;;0.30;;
31482;SDS011;18103;52.246;8.052;2023-03-14T10:32:02;0.10;;;0.10;;
31482;SDS011;18103;52.246;8.052;2023-03-14T10:34:30;0.10;;;0.10;;
31482;SDS011;18103;52.246;8.052;2023-03-14T10:37:05;9.60;;;1.00;;
31482;SDS011;18103;52.246;8.052;2023-03-14T10:39:53;0.10;;;0.10;;
31482;SDS011;18103;52.246;8.052;2023-03-14T10:45:00;0.20;;;0.20;;
31482;SDS011;18103;52.246;8.052;2023-03-14T10:47:28;1.30;;;0.20;;
31482;SDS011;18103;52.246;8.052;2023-03-14T10:49:55;0.20;;;0.20;;
31482;SDS011;18103;52.246;8.052;2023-03-14T10:52:23;0.23;;;0.10;;
31482;SDS011;18103;52.246;8.052;2023-03-14T10:54:59;0.23;;;0.23;;
31482;SDS011;18103;52.246;8.052;2023-03-14T10:57:28;0.20;;;0.20;;
31482;SDS011;18103;52.246;8.052;2023-03-14T10:59:55;0.20;;;0.20;;
31482;SDS011;18103;52.246;8.052;2023-03-14T11:08:07;0.63;;;0.40;;
31482;SDS011;18103;52.246;8.052;2023-03-14T11:10:38;0.20;;;0.20;;
31482;SDS011;18103;52.246;8.052;2023-03-14T11:13:17;0.20;;;0.20;;
31482;SDS011;18103;52.246;8.052;2023-03-14T11:18:48;0.27;;;0.27;;
31482;SDS011;18103;52.246;8.052;2023-03-14T11:29:40;0.20;;;0.20;;
31482;SDS011;18103;52.246;8.052;2023-03-14T11:32:13;5.00;;;0.27;;
31482;SDS011;18103;52.246;8.052;2023-03-14T11:34:54;0.20;;;0.20;;
31482;SDS011;18103;52.246;8.052;2023-03-14T11:42:46;0.70;;;0.70;;
31482;SDS011;18103;52.246;8.052;2023-03-14T11:45:20;4.47;;;1.23;;
31482;SDS011;18103;52.246;8.052;2023-03-14T11:48:05;1.70;;;0.30;;
31482;SDS011;18103;52.246;8.052;2023-03-14T11:50:36;0.30;;;0.30;;
31482;SDS011;18103;52.246;8.052;2023-03-14T11:53:05;0.50;;;0.50;;
31482;SDS011;18103;52.246;8.052;2023-03-14T11:55:38;3.70;;;0.87;;
31482;SDS011;18103;52.246;8.052;2023-03-14T12:00:48;0.40;;;0.40;;
31482;SDS011;18103;52.246;8.052;2023-03-14T12:03:24;1.90;;;0.30;;
31482;SDS011;18103;52.246;8.052;2023-03-14T12:08:22;2.67;;;0.47;;
31482;SDS011;18103;52.246;8.052;2023-03-14T12:11:15;0.50;;;0.40;;
31482;SDS011;18103;52.246;8.052;2023-03-14T12:14:03;0.43;;;0.27;;
31482;SDS011;18103;52.246;8.052;2023-03-14T12:16:43;0.30;;;0.30;;
31482;SDS011;18103;52.246;8.052;2023-03-14T12:21:50;3.43;;;0.63;;
31482;SDS011;18103;52.246;8.052;2023-03-14T12:24:25;0.80;;;0.63;;
31482;SDS011;18103;52.246;8.052;2023-03-14T12:27:01;6.70;;;0.87;;
31482;SDS011;18103;52.246;8.052;2023-03-14T12:47:53;0.40;;;0.40;;
31482;SDS011;18103;52.246;8.052;2023-03-14T12:50:22;1.57;;;0.37;;
31482;SDS011;18103;52.246;8.052;2023-03-14T12:57:55;0.60;;;0.33;;
31482;SDS011;18103;52.246;8.052;2023-03-14T13:00:32;11.10;;;1.37;;
31482;SDS011;18103;52.246;8.052;2023-03-14T13:03:03;3.50;;;0.90;;
31482;SDS011;18103;52.246;8.052;2023-03-14T13:05:40;4.43;;;1.07;;
31482;SDS011;18103;52.246;8.052;2023-03-14T13:08:32;5.87;;;1.07;;
31482;SDS011;18103;52.246;8.052;2023-03-14T13:11:14;2.90;;;0.83;;
31482;SDS011;18103;52.246;8.052;2023-03-14T13:13:45;2.33;;;0.77;;
31482;SDS011;18103;52.246;8.052;2023-03-14T13:16:17;6.73;;;0.80;;
31482;SDS011;18103;52.246;8.052;2023-03-14T13:18:45;7.00;;;1.43;;
31482;SDS011;18103;52.246;8.052;2023-03-14T13:24:34;5.50;;;0.60;;
31482;SDS011;18103;52.246;8.052;2023-03-14T13:26:59;1.40;;;0.60;;
31482;SDS011;18103;52.246;8.052;2023-03-14T13:29:29;0.20;;;0.20;;
31482;SDS011;18103;52.246;8.052;2023-03-14T13:32:10;0.93;;;0.77;;
31482;SDS011;18103;52.246;8.052;2023-03-14T13:34:42;3.00;;;1.40;;
31482;SDS011;18103;52.246;8.052;2023-03-14T13:37:22;3.70;;;0.77;;
31482;SDS011;18103;52.246;8.052;2023-03-14T13:39:50;1.53;;;0.73;;
31482;SDS011;18103;52.246;8.052;2023-03-14T13:42:20;8.30;;;1.40;;
31482;SDS011;18103;52.246;8.052;2023-03-14T13:44:53;0.83;;;0.27;;
31482;SDS011;18103;52.246;8.052;2023-03-14T13:47:23;0.30;;;0.30;;
31482;SDS011;18103;52.246;8.052;2023-03-14T13:49:50;4.67;;;1.53;;
31482;SDS011;18103;52.246;8.052;2023-03-14T13:52:37;10.80;;;1.33;;
31482;SDS011;18103;52.246;8.052;2023-03-14T13:55:03;2.97;;;1.07;;
31482;SDS011;18103;52.246;8.052;2023-03-14T13:57:46;3.87;;;0.57;;
31482;SDS011;18103;52.246;8.052;2023-03-14T14:00:20;0.83;;;0.40;;
31482;SDS011;18103;52.246;8.052;2023-03-14T14:02:51;0.57;;;0.57;;
31482;SDS011;18103;52.246;8.052;2023-03-14T14:05:21;9.20;;;1.43;;
31482;SDS011;18103;52.246;8.052;2023-03-14T14:07:48;4.47;;;1.37;;
31482;SDS011;18103;52.246;8.052;2023-03-14T14:10:14;11.30;;;0.67;;
31482;SDS011;18103;52.246;8.052;2023-03-14T14:12:47;9.13;;;0.80;;
31482;SDS011;18103;52.246;8.052;2023-03-14T14:15:27;2.37;;;0.43;;
31482;SDS011;18103;52.246;8.052;2023-03-14T14:18:00;1.57;;;0.93;;
31482;SDS011;18103;52.246;8.052;2023-03-14T14:22:59;1.07;;;0.67;;
31482;SDS011;18103;52.246;8.052;2023-03-14T14:25:28;0.90;;;0.63;;
31482;SDS011;18103;52.246;8.052;2023-03-14T14:27:54;2.30;;;0.83;;
31482;SDS011;18103;52.246;8.052;2023-03-14T14:32:46;4.70;;;1.50;;
31482;SDS011;18103;52.246;8.052;2023-03-14T14:35:22;0.30;;;0.30;;
31482;SDS011;18103;52.246;8.052;2023-03-14T14:37:48;5.47;;;0.80;;
31482;SDS011;18103;52.246;8.052;2023-03-14T14:46:06;6.63;;;0.80;;
31482;SDS011;18103;52.246;8.052;2023-03-14T14:48:37;0.87;;;0.57;;
31482;SDS011;18103;52.246;8.052;2023-03-14T14:51:03;3.13;;;1.10;;
31482;SDS011;18103;52.246;8.052;2023-03-14T14:56:19;4.13;;;0.30;;
31482;SDS011;18103;52.246;8.052;2023-03-14T14:58:55;0.20;;;0.20;;
31482;SDS011;18103;52.246;8.052;2023-03-14T15:04:04;0.40;;;0.40;;
31482;SDS011;18103;52.246;8.052;2023-03-14T15:06:37;8.33;;;0.90;;
31482;SDS011;18103;52.246;8.052;2023-03-14T15:09:08;0.63;;;0.60;;
31482;SDS011;18103;52.246;8.052;2023-03-14T15:11:36;4.67;;;1.00;;
31482;SDS011;18103;52.246;8.052;2023-03-14T15:14:02;1.73;;;1.03;;
31482;SDS011;18103;52.246;8.052;2023-03-14T15:16:31;6.23;;;1.13;;
31482;SDS011;18103;52.246;8.052;2023-03-14T15:18:58;3.63;;;0.70;;
31482;SDS011;18103;52.246;8.052;2023-03-14T15:21:25;5.53;;;1.17;;
31482;SDS011;18103;52.246;8.052;2023-03-14T15:23:57;2.93;;;1.10;;
31482;SDS011;18103;52.246;8.052;2023-03-14T15:26:27;3.77;;;0.70;;
31482;SDS011;18103;52.246;8.052;2023-03-14T15:28:56;3.67;;;1.00;;
31482;SDS011;18103;52.246;8.052;2023-03-14T15:31:22;4.37;;;1.17;;
31482;SDS011;18103;52.246;8.052;2023-03-14T15:33:47;6.13;;;0.90;;
31482;SDS011;18103;52.246;8.052;2023-03-14T15:36:16;12.17;;;1.20;;
31482;SDS011;18103;52.246;8.052;2023-03-14T15:38:47;1.93;;;0.80;;
31482;SDS011;18103;52.246;8.052;2023-03-14T15:41:15;3.20;;;0.70;;
31482;SDS011;18103;52.246;8.052;2023-03-14T15:43:41;6.97;;;1.63;;
31482;SDS011;18103;52.246;8.052;2023-03-14T15:46:09;2.93;;;1.07;;
31482;SDS011;18103;52.246;8.052;2023-03-14T15:48:35;8.10;;;0.63;;
31482;SDS011;18103;52.246;8.052;2023-03-14T15:51:01;1.10;;;0.50;;
31482;SDS011;18103;52.246;8.052;2023-03-14T15:53:26;1.53;;;0.63;;
31482;SDS011;18103;52.246;8.052;2023-03-14T15:55:52;9.57;;;1.17;;
31482;SDS011;18103;52.246;8.052;2023-03-14T15:58:18;6.73;;;1.07;;
31482;SDS011;18103;52.246;8.052;2023-03-14T16:00:44;3.67;;;0.67;;
31482;SDS011;18103;52.246;8.052;2023-03-14T16:03:09;7.27;;;1.23;;
31482;SDS011;18103;52.246;8.052;2023-03-14T16:05:36;10.63;;;0.70;;
31482;SDS011;18103;52.246;8.052;2023-03-14T16:08:05;11.33;;;1.20;;
31482;SDS011;18103;52.246;8.052;2023-03-14T16:10:35;7.63;;;1.00;;
31482;SDS011;18103;52.246;8.052;2023-03-14T16:13:01;10.17;;;1.40;;
31482;SDS011;18103;52.246;8.052;2023-03-14T16:15:29;3.47;;;1.00;;
31482;SDS011;18103;52.246;8.052;2023-03-14T16:17:54;14.17;;;1.30;;
31482;SDS011;18103;52.246;8.052;2023-03-14T16:20:22;3.10;;;1.20;;
31482;SDS011;18103;52.246;8.052;2023-03-14T16:22:48;5.80;;;1.17;;
31482;SDS011;18103;52.246;8.052;2023-03-14T16:25:14;4.63;;;1.10;;
31482;SDS011;18103;52.246;8.052;2023-03-14T16:27:44;8.20;;;1.27;;
31482;SDS011;18103;52.246;8.052;2023-03-14T16:30:12;9.80;;;1.53;;
31482;SDS011;18103;52.246;8.052;2023-03-14T16:32:40;3.90;;;0.63;;